Time;durP1;ratioP1;P1;durP2;ratioP2;P2;SDS_P1;SDS_P2;PMS_P1;PMS_P2;Temp;Humidity;BMP_temperature;BMP_pressure;BME280_temperature;BME280_humidity;BME280_pressure;Samples;Min_cycle;Max_cycle;Signal;HPM_P1;HPM_P2
2023/10/09 00:04:56;;;;;;;3.90;2.00;;;;;;;11.39;40.37;100767.12;7632054;32;38915;-80
2023/10/09 00:13:57;;;;;;;2.95;1.73;;;;;;;11.15;40.90;100761.09;7606381;32;40017;-80
2023/10/09 00:18:14;;;;;;;5.90;1.98;;;;;;;11.42;41.48;100757.62;7622397;32;40543;-80
2023/10/09 00:22:30;;;;;;;2.92;1.70;;;;;;;11.31;41.86;100767.56;7632317;32;37876;-79
2023/10/09 00:26:47;;;;;;;3.90;1.62;;;;;;;11.22;42.33;100749.97;7632453;32;37086;-81
2023/10/09 00:31:07;;;;;;;3.58;1.90;;;;;;;11.28;42.28;100751.72;7632406;32;39204;-81
2023/10/09 00:35:36;;;;;;;4.87;1.80;;;;;;;11.13;42.95;100746.88;7632532;32;40752;-81
2023/10/09 00:39:56;;;;;;;2.37;1.80;;;;;;;11.34;42.08;100739.75;7631248;32;38740;-80
2023/10/09 00:44:14;;;;;;;3.58;1.90;;;;;;;11.35;42.55;100746.03;7632145;32;37853;-80
2023/10/09 00:48:33;;;;;;;3.33;1.50;;;;;;;11.45;42.92;100737.97;7632147;32;39433;-80
2023/10/09 00:53:03;;;;;;;4.10;2.22;;;;;;;11.44;43.17;100733.62;7606139;32;39792;-78
2023/10/09 00:57:24;;;;;;;2.92;1.80;;;;;;;11.59;42.60;100733.81;7605990;32;37949;-79
2023/10/09 01:01:56;;;;;;;3.12;1.65;;;;;;;11.56;43.41;100731.56;7606026;32;37085;-80
2023/10/09 01:10:50;;;;;;;2.72;1.65;;;;;;;11.50;43.08;100740.78;7606344;32;39774;-80
2023/10/09 01:15:07;;;;;;;3.28;1.62;;;;;;;11.46;43.62;100748.66;7605092;32;37928;-81
2023/10/09 01:19:23;;;;;;;2.00;1.60;;;;;;;11.40;44.25;100738.75;7605963;32;37125;-81
2023/10/09 01:23:59;;;;;;;2.30;1.60;;;;;;;11.40;44.63;100737.91;7605640;32;39472;-81
2023/10/09 01:28:15;;;;;;;2.22;1.73;;;;;;;11.31;45.28;100734.00;7605509;32;40051;-81
2023/10/09 01:32:34;;;;;;;4.90;2.05;;;;;;;11.33;45.09;100738.13;7605348;32;37751;-80
2023/10/09 01:36:55;;;;;;;3.78;1.80;;;;;;;11.49;44.90;100746.50;7605368;32;37364;-80
2023/10/09 01:41:16;;;;;;;2.70;1.70;;;;;;;11.37;45.85;100757.56;7605287;32;39204;-79
2023/10/09 01:45:41;;;;;;;1.90;1.67;;;;;;;11.45;45.67;100754.38;7605144;32;39772;-79
2023/10/09 01:49:58;;;;;;;2.65;1.60;;;;;;;11.38;45.88;100751.84;7605219;32;37907;-80
2023/10/09 01:54:33;;;;;;;1.95;1.52;;;;;;;11.49;46.21;100751.94;7604979;32;37902;-80
2023/10/09 01:58:50;;;;;;;6.85;1.80;;;;;;;11.50;45.52;100748.16;7604968;32;39876;-80
2023/10/09 02:03:23;;;;;;;1.77;1.48;;;;;;;11.46;45.00;100745.91;7614095;32;40073;-80
2023/10/09 02:07:44;;;;;;;2.05;1.45;;;;;;;11.57;45.35;100748.78;7630738;32;38909;-81
2023/10/09 02:12:01;;;;;;;3.42;1.67;;;;;;;11.55;45.36;100761.88;7630453;32;37137;-80
2023/10/09 02:16:28;;;;;;;3.87;1.80;;;;;;;11.43;45.19;100742.88;7630455;32;39402;-81
2023/10/09 02:20:46;;;;;;;2.67;1.65;;;;;;;11.56;44.79;100722.56;7630428;32;40900;-80
2023/10/09 02:25:05;;;;;;;3.22;1.92;;;;;;;11.46;45.33;100704.16;7629713;32;38094;-80
2023/10/09 02:29:23;;;;;;;10.77;1.80;;;;;;;11.54;45.14;100694.66;7632620;32;37012;-80
2023/10/09 02:33:40;;;;;;;2.87;1.58;;;;;;;11.41;45.03;100690.44;7632644;32;40170;-81
2023/10/09 02:37:58;;;;;;;2.97;1.70;;;;;;;11.47;44.23;100681.25;7624642;32;39999;-81
2023/10/09 02:46:31;;;;;;;5.45;1.70;;;;;;;11.48;44.18;100680.13;7607408;32;37234;-81
2023/10/09 02:50:50;;;;;;;3.25;1.85;;;;;;;11.39;44.60;100673.50;7607417;32;39385;-80
2023/10/09 02:55:22;;;;;;;4.50;1.90;;;;;;;11.36;44.82;100658.44;7608113;32;40449;-81
2023/10/09 02:59:44;;;;;;;4.10;1.83;;;;;;;11.37;44.94;100662.81;7607204;32;38850;-81
2023/10/09 03:04:10;;;;;;;3.95;2.00;;;;;;;11.36;44.14;100672.09;7607272;32;37263;-81
2023/10/09 03:08:27;;;;;;;3.05;1.90;;;;;;;11.26;44.50;100661.88;7607339;32;39393;-81
2023/10/09 03:12:44;;;;;;;3.70;1.80;;;;;;;11.40;44.06;100659.59;7622682;32;40544;-81
2023/10/09 03:17:00;;;;;;;2.80;1.65;;;;;;;11.42;44.80;100643.78;7633059;32;38718;-81
2023/10/09 03:21:17;;;;;;;2.90;1.90;;;;;;;11.23;44.72;100689.69;7633177;32;37253;-82
2023/10/09 03:25:35;;;;;;;4.37;2.03;;;;;;;11.40;44.40;100695.09;7633118;32;40257;-81
2023/10/09 03:29:53;;;;;;;3.85;1.70;;;;;;;11.27;45.41;100690.81;7633044;32;40107;-80
2023/10/09 03:34:10;;;;;;;5.05;1.50;;;;;;;11.19;44.60;100683.09;7633116;32;38734;-81
2023/10/09 03:38:34;;;;;;;2.85;1.80;;;;;;;11.32;44.06;100681.88;7632161;32;37245;-81
2023/10/09 03:42:51;;;;;;;2.78;1.80;;;;;;;11.45;43.73;100686.94;7632923;32;40031;-81
2023/10/09 03:47:11;;;;;;;2.62;1.70;;;;;;;11.55;43.93;100664.37;7616690;32;39891;-81
2023/10/09 03:51:29;;;;;;;3.25;1.65;;;;;;;11.46;44.45;100660.47;7606687;32;39004;-80
2023/10/09 03:55:45;;;;;;;1.80;1.52;;;;;;;11.59;44.20;100660.06;7606771;32;36122;-81
2023/10/09 04:00:13;;;;;;;2.75;1.85;;;;;;;11.58;44.47;100669.31;7606841;32;39154;-81
2023/10/09 04:04:32;;;;;;;2.65;1.75;;;;;;;11.53;44.65;100666.53;7606529;32;39796;-81
2023/10/09 04:08:51;;;;;;;6.55;1.70;;;;;;;11.35;45.48;100675.06;7606559;32;38181;-81
2023/10/09 04:13:10;;;;;;;2.17;1.60;;;;;;;11.33;45.31;100669.88;7606412;32;35999;-81
2023/10/09 04:21:48;;;;;;;3.60;1.62;;;;;;;11.43;45.00;100652.78;7606453;32;39939;-81
2023/10/09 04:26:14;;;;;;;2.87;1.70;;;;;;;11.26;44.72;100656.44;7606238;32;38068;-81
2023/10/09 04:30:39;;;;;;;4.82;1.73;;;;;;;11.36;44.76;100646.69;7606314;32;37225;-81
2023/10/09 04:35:19;;;;;;;7.12;1.77;;;;;;;11.38;45.04;100642.66;7606352;32;40194;-82
2023/10/09 04:43:50;;;;;;;2.42;1.70;;;;;;;11.49;45.45;100634.53;7608660;32;37898;-81
2023/10/09 04:48:06;;;;;;;2.35;1.75;;;;;;;11.40;45.59;100640.47;7605777;32;37811;-81
2023/10/09 04:56:52;;;;;;;4.00;2.10;;;;;;;11.52;45.85;100637.59;7605962;32;40757;-81
2023/10/09 05:01:16;;;;;;;4.63;2.10;;;;;;;11.58;45.46;100620.16;7605974;32;38006;-81
2023/10/09 05:10:16;;;;;;;2.15;1.60;;;;;;;11.61;45.78;100630.59;7605858;32;39451;-81
2023/10/09 05:14:54;;;;;;;2.53;1.75;;;;;;;11.55;45.75;100614.41;7605286;32;40082;-81
2023/10/09 05:19:28;;;;;;;3.08;1.90;;;;;;;11.63;45.29;100619.41;7605744;32;38164;-82
2023/10/09 05:23:48;;;;;;;3.08;1.75;;;;;;;11.67;44.13;100638.81;7605530;32;37085;-80
2023/10/09 05:28:25;;;;;;;4.78;1.90;;;;;;;11.32;45.06;100642.84;7605539;32;40238;-81
2023/10/09 05:32:48;;;;;;;3.65;1.70;;;;;;;11.74;44.01;100650.37;7618902;32;41033;-80
2023/10/09 05:37:17;;;;;;;2.72;1.80;;;;;;;11.90;44.46;100649.44;7631328;32;38029;-80
2023/10/09 05:41:53;;;;;;;6.72;1.92;;;;;;;11.62;44.68;100599.47;7631374;32;37651;-80
2023/10/09 05:46:09;;;;;;;4.80;1.90;;;;;;;11.84;43.27;100602.09;7631180;32;39563;-80
2023/10/09 06:04:15;;;;;;;4.53;2.10;;;;;;;11.71;43.70;100586.16;7608026;32;39295;-81
2023/10/09 06:13:03;;;;;;;3.15;1.75;;;;;;;12.09;41.28;100581.56;7607725;32;37962;-81
2023/10/09 06:17:23;;;;;;;3.30;1.70;;;;;;;12.12;41.81;100574.75;7607942;32;36836;-80
2023/10/09 06:26:23;;;;;;;2.15;1.50;;;;;;;12.05;38.11;100572.22;7642120;32;40084;-78
2023/10/09 06:30:44;;;;;;;3.35;1.80;;;;;;;12.04;37.89;100578.81;7633397;32;38655;-73
2023/10/09 06:44:51;;;;;;;4.07;1.60;;;;;;;12.43;36.56;100575.75;7618292;32;39850;-85
2023/10/09 06:48:56;;;;;;;3.55;1.52;;;;;;;12.52;37.78;100568.72;7615132;32;38814;-85
2023/10/09 06:57:48;;;;;;;7.22;2.45;;;;;;;12.54;36.85;100565.72;7611886;32;39290;-83
2023/10/09 07:11:20;;;;;;;2.80;1.67;;;;;;;12.79;34.24;100507.53;7616526;32;37004;-82
2023/10/09 07:20:15;;;;;;;5.18;2.10;;;;;;;11.99;33.93;100489.41;7608903;32;39323;-86
2023/10/09 07:24:43;;;;;;;3.67;1.85;;;;;;;12.18;34.30;100481.56;7632940;32;38754;-87
2023/10/09 07:29:16;;;;;;;4.50;2.00;;;;;;;12.44;33.64;100473.50;7612906;32;37781;-86
2023/10/09 07:38:11;;;;;;;5.32;1.80;;;;;;;12.76;31.92;100473.34;7606916;32;40658;-86
2023/10/09 07:42:43;;;;;;;3.78;2.25;;;;;;;12.92;32.28;100467.91;7608697;32;37965;-86
2023/10/09 07:51:37;;;;;;;3.78;1.83;;;;;;;13.27;33.09;100471.75;7632795;32;39159;-86
2023/10/09 07:55:55;;;;;;;2.97;1.58;;;;;;;13.49;31.83;100466.84;7621392;32;39855;-86
2023/10/09 08:00:12;;;;;;;2.33;1.27;;;;;;;13.24;31.11;100473.12;7606600;32;38013;-85
2023/10/09 08:04:39;;;;;;;3.10;1.45;;;;;;;13.27;30.38;100458.88;7623946;32;37158;-84
2023/10/09 08:17:58;;;;;;;2.80;1.62;;;;;;;12.95;31.45;100442.69;7632200;32;37931;-83
2023/10/09 08:26:47;;;;;;;4.03;1.45;;;;;;;13.21;32.02;100415.34;7632525;32;39413;-84
2023/10/09 08:31:18;;;;;;;7.45;1.83;;;;;;;13.92;32.00;100425.44;7632414;32;39789;-86
2023/10/09 08:35:47;;;;;;;4.18;1.37;;;;;;;13.89;31.46;100440.50;7632654;32;36396;-74
2023/10/09 08:40:07;;;;;;;3.12;1.60;;;;;;;13.86;32.70;100432.81;7632116;32;37233;-78
2023/10/09 08:44:26;;;;;;;1.90;1.30;;;;;;;14.16;30.86;100417.38;7621312;32;39162;-78
2023/10/09 08:48:42;;;;;;;4.40;1.80;;;;;;;13.55;30.83;100406.59;7608935;32;40903;-79
2023/10/09 08:52:59;;;;;;;5.07;1.90;;;;;;;13.32;31.67;100406.87;7605684;32;38024;-78
2023/10/09 08:57:18;;;;;;;1.98;1.35;;;;;;;13.69;31.94;100392.06;7617036;32;37222;-80
2023/10/09 09:01:34;;;;;;;2.70;1.50;;;;;;;14.01;32.47;100392.78;7630769;32;39363;-78
2023/10/09 09:06:01;;;;;;;4.07;1.33;;;;;;;14.23;31.47;100384.19;7631820;32;40145;-71
2023/10/09 09:10:34;;;;;;;6.37;1.50;;;;;;;14.07;31.50;100384.25;7631904;32;37761;-79
2023/10/09 09:14:51;;;;;;;;;;;;;;;14.54;30.60;100373.84;7612733;32;37099;-78
2023/10/09 09:19:17;;;;;;;3.28;1.33;;;;;;;14.73;30.13;100354.81;7605993;32;39505;-78
2023/10/09 09:23:34;;;;;;;2.15;1.27;;;;;;;14.89;29.47;100360.19;7605573;32;39827;-80
2023/10/09 09:27:55;;;;;;;3.60;1.52;;;;;;;15.11;29.05;100363.31;7605378;32;37934;-79
2023/10/09 09:32:19;;;;;;;2.33;1.40;;;;;;;15.27;29.34;100355.72;7605590;32;36247;-80
2023/10/09 09:36:37;;;;;;;3.58;1.67;;;;;;;15.69;28.55;100340.44;7614348;32;39365;-80
2023/10/09 09:40:57;;;;;;;1.58;1.30;;;;;;;15.83;28.77;100343.34;7605291;32;39741;-86
2023/10/09 09:45:13;;;;;;;4.05;1.67;;;;;;;15.95;28.49;100342.91;7616328;32;38731;-83
2023/10/09 09:49:33;;;;;;;1.65;1.35;;;;;;;15.89;28.07;100338.63;7616220;32;36781;-81
2023/10/09 09:53:50;;;;;;;2.53;1.20;;;;;;;16.04;29.27;100351.34;7605000;32;39334;-79
2023/10/09 09:58:18;;;;;;;2.40;1.30;;;;;;;16.24;28.74;100370.31;7616415;32;39820;-80
2023/10/09 10:02:38;;;;;;;3.70;1.50;;;;;;;16.24;28.18;100264.97;7617511;32;38697;-79
2023/10/09 10:06:57;;;;;;;2.62;1.50;;;;;;;15.31;30.70;100153.50;7630831;32;37245;-79
2023/10/09 10:11:46;;;;;;;3.55;1.50;;;;;;;15.42;31.71;100285.25;7630642;32;39056;-82
2023/10/09 10:16:13;;;;;;;3.75;1.20;;;;;;;15.98;31.74;100242.53;7615153;32;39988;-78
2023/10/09 10:20:31;;;;;;;1.95;1.25;;;;;;;16.47;31.51;100210.94;7630392;32;37763;-77
2023/10/09 10:24:54;;;;;;;4.28;1.60;;;;;;;16.78;28.84;100205.75;7604244;32;37935;-81
2023/10/09 10:29:26;;;;;;;1.97;1.50;;;;;;;16.47;28.14;100191.69;7604883;32;40142;-79
2023/10/09 10:33:55;;;;;;;2.53;1.37;;;;;;;17.05;27.83;100184.88;7609097;32;40880;-82
2023/10/09 10:38:42;;;;;;;4.80;1.35;;;;;;;17.36;27.24;100176.00;7604337;32;37906;-81
2023/10/09 10:43:09;;;;;;;5.75;1.50;;;;;;;17.64;26.59;100188.63;7612183;32;37021;-85
2023/10/09 10:47:33;;;;;;;2.97;1.15;;;;;;;17.65;28.05;100189.44;7612217;32;39430;-82
2023/10/09 10:52:01;;;;;;;1.50;1.20;;;;;;;18.29;25.62;100191.28;7633642;32;40004;-82
2023/10/09 10:56:18;;;;;;;5.22;1.60;;;;;;;18.24;26.29;100194.19;7632267;32;38703;-81
2023/10/09 11:05:50;;;;;;;4.50;1.62;;;;;;;19.61;24.54;100186.06;7632448;32;39530;-82
2023/10/09 11:14:25;;;;;;;5.07;1.50;;;;;;;19.20;24.62;100219.59;7633092;32;38778;-84
2023/10/09 11:18:48;;;;;;;3.00;1.35;;;;;;;19.35;25.22;100185.16;7633516;32;37797;-82
2023/10/09 11:23:36;;;;;;;5.10;1.48;;;;;;;19.60;25.52;100153.19;7633346;32;39351;-82
2023/10/09 11:27:50;;;;;;;2.87;1.20;;;;;;;18.96;25.42;100162.78;7632964;32;39898;-85
2023/10/09 11:32:22;;;;;;;5.43;1.53;;;;;;;18.64;25.91;100164.69;7633064;32;38749;-83
2023/10/09 11:36:38;;;;;;;7.43;1.67;;;;;;;18.60;26.22;100146.34;7633079;32;37108;-83
2023/10/09 11:45:28;;;;;;;3.50;1.55;;;;;;;18.29;28.07;100106.56;7632757;32;40009;-82
2023/10/09 11:50:11;;;;;;;6.43;1.75;;;;;;;17.92;30.91;100105.84;7632773;32;38173;-85
2023/10/09 11:54:33;;;;;;;8.95;1.95;;;;;;;17.67;35.22;100114.69;7632902;32;37113;-83
2023/10/09 11:58:52;;;;;;;4.10;1.33;;;;;;;17.63;34.71;100111.75;7631980;32;39373;-83
2023/10/09 12:03:09;;;;;;;4.25;1.95;;;;;;;17.70;34.54;100090.06;7632899;32;40124;-82
2023/10/09 12:07:25;;;;;;;4.65;1.60;;;;;;;17.64;35.75;100100.41;7632502;32;37908;-83
2023/10/09 12:11:41;;;;;;;4.57;1.73;;;;;;;17.48;36.33;100096.34;7632696;32;37008;-82
2023/10/09 12:16:18;;;;;;;7.43;2.10;;;;;;;17.89;34.23;100105.66;7632794;32;37793;-83
2023/10/09 12:20:35;;;;;;;6.97;1.35;;;;;;;17.88;33.83;100099.31;7632557;32;40861;-82
2023/10/09 12:24:52;;;;;;;3.25;1.60;;;;;;;17.45;32.10;100102.47;7634976;32;38729;-78
2023/10/09 12:29:10;;;;;;;2.67;1.52;;;;;;;17.07;33.11;100113.78;7637203;32;37990;-83
2023/10/09 12:33:29;;;;;;;3.87;1.85;;;;;;;17.16;34.94;100109.19;7631237;32;40148;-84
2023/10/09 12:37:47;;;;;;;3.28;1.25;;;;;;;17.00;33.01;100116.13;7632749;32;40665;-82
2023/10/09 12:42:06;;;;;;;6.03;1.60;;;;;;;16.91;35.34;100098.72;7632268;32;38783;-83
2023/10/09 12:46:25;;;;;;;10.82;1.77;;;;;;;16.12;35.22;100117.72;7632302;32;37800;-82
2023/10/09 12:50:44;;;;;;;4.65;1.50;;;;;;;16.31;36.76;100097.59;7632409;32;39997;-82
2023/10/09 12:55:00;;;;;;;8.02;2.80;;;;;;;16.20;36.27;100101.66;7632155;32;39850;-82
2023/10/09 12:59:19;;;;;;;4.97;2.25;;;;;;;15.61;38.95;100118.50;7632238;32;37996;-81
2023/10/09 13:03:39;;;;;;;5.35;1.70;;;;;;;15.57;39.32;100120.19;7632174;32;37730;-81
2023/10/09 13:08:01;;;;;;;6.72;2.10;;;;;;;15.05;41.93;100116.53;7632431;32;37461;-82
2023/10/09 13:12:18;;;;;;;5.83;2.07;;;;;;;14.92;41.88;100099.66;7631740;32;39772;-83
2023/10/09 13:16:35;;;;;;;4.43;1.65;;;;;;;15.38;41.58;100085.31;7631859;32;38008;-84
2023/10/09 13:20:51;;;;;;;5.07;1.90;;;;;;;15.49;43.40;100075.00;7631846;32;38041;-83
2023/10/09 13:25:15;;;;;;;2.05;1.40;;;;;;;15.12;44.70;100075.78;7631817;32;39296;-82
2023/10/09 13:29:52;;;;;;;7.07;3.10;;;;;;;15.20;42.93;100080.63;7631670;32;40793;-82
2023/10/09 13:34:14;;;;;;;18.00;8.35;;;;;;;15.27;44.21;100091.25;7631553;32;37941;-82
2023/10/09 13:38:31;;;;;;;8.20;3.62;;;;;;;15.33;43.15;100096.38;7631492;32;37888;-77
2023/10/09 13:42:49;;;;;;;5.43;2.42;;;;;;;15.34;44.67;100084.25;7631213;32;39979;-81
2023/10/09 13:47:05;;;;;;;2.80;1.90;;;;;;;15.61;46.86;100091.03;7631261;32;40843;-68
2023/10/09 13:51:24;;;;;;;4.93;2.00;;;;;;;15.69;47.43;100071.09;7631104;32;37987;-72
2023/10/09 13:55:43;;;;;;;3.83;1.73;;;;;;;15.86;46.90;100056.03;7631230;32;39216;-84
2023/10/09 14:00:00;;;;;;;4.00;1.87;;;;;;;15.90;46.15;100059.81;7630991;32;39195;-83
2023/10/09 14:04:19;;;;;;;6.93;1.90;;;;;;;15.75;45.47;100014.97;7630724;32;39923;-80
2023/10/09 14:08:41;;;;;;;4.65;2.15;;;;;;;15.60;49.06;100023.44;7626646;32;38556;-83
2023/10/09 14:12:58;;;;;;;3.97;1.87;;;;;;;15.82;50.00;100025.56;7628888;32;37793;-82
2023/10/09 14:17:19;;;;;;;4.43;2.05;;;;;;;15.69;53.13;100020.81;7629814;32;39463;-81
2023/10/09 14:21:40;;;;;;;3.62;1.73;;;;;;;15.72;52.81;100015.53;7630860;32;40739;-82
2023/10/09 14:26:01;;;;;;;7.57;1.92;;;;;;;15.71;53.19;100030.41;7633196;32;37917;-80
2023/10/09 14:30:30;;;;;;;6.90;1.75;;;;;;;15.55;54.37;100040.81;7633277;32;37636;-81
2023/10/09 14:34:49;;;;;;;5.35;1.95;;;;;;;15.67;54.31;100039.53;7632610;32;39441;-81
2023/10/09 14:39:06;;;;;;;3.62;2.37;;;;;;;15.38;55.27;100024.03;7633167;32;39963;-81
2023/10/09 14:43:27;;;;;;;2.72;2.03;;;;;;;15.50;54.29;100016.16;7632748;32;37743;-82
2023/10/09 14:47:46;;;;;;;7.03;2.12;;;;;;;15.32;53.87;100020.56;7633004;32;37024;-81
2023/10/09 14:52:03;;;;;;;5.37;2.08;;;;;;;15.28;53.75;100016.81;7632937;32;40269;-82
2023/10/09 14:56:28;;;;;;;4.43;1.92;;;;;;;15.34;53.75;100020.28;7633004;32;40060;-81
2023/10/09 15:00:47;;;;;;;6.15;2.20;;;;;;;15.32;53.73;100039.81;7632468;32;38859;-83
2023/10/09 15:05:04;;;;;;;4.43;2.25;;;;;;;15.12;54.38;100037.34;7633096;32;38122;-81
2023/10/09 15:09:28;;;;;;;6.00;2.40;;;;;;;15.20;54.79;100033.94;7632541;32;40263;-81
2023/10/09 15:13:44;;;;;;;4.28;2.00;;;;;;;14.91;56.14;100034.88;7632121;32;39891;-80
2023/10/09 15:18:03;;;;;;;5.57;1.95;;;;;;;14.78;56.03;100024.59;7632714;32;37885;-81
2023/10/09 15:22:21;;;;;;;5.78;2.10;;;;;;;14.67;56.71;100012.94;7632101;32;37040;-83
2023/10/09 15:26:37;;;;;;;3.87;1.95;;;;;;;14.70;57.30;100001.41;7632779;32;40008;-81
2023/10/09 15:30:54;;;;;;;7.15;1.83;;;;;;;14.37;57.35;100003.16;7632188;32;39747;-81
2023/10/09 15:35:12;;;;;;;3.30;2.05;;;;;;;14.55;55.23;99988.66;7631450;32;38000;-82
2023/10/09 15:39:31;;;;;;;5.15;1.90;;;;;;;14.74;53.92;99998.88;7632184;32;36898;-81
2023/10/09 15:43:48;;;;;;;6.18;2.17;;;;;;;14.39;54.33;99987.22;7632405;32;40514;-81
2023/10/09 15:48:04;;;;;;;4.50;2.22;;;;;;;14.41;53.71;99999.50;7632221;32;39971;-81
2023/10/09 15:52:26;;;;;;;7.65;2.25;;;;;;;14.24;54.14;99983.53;7630620;32;37876;-81
2023/10/09 15:56:42;;;;;;;6.20;2.05;;;;;;;14.07;54.91;99989.47;7632636;32;37451;-80
2023/10/09 16:01:14;;;;;;;5.95;2.37;;;;;;;13.99;55.83;99992.84;7632063;32;39133;-80
2023/10/09 16:05:35;;;;;;;6.12;2.30;;;;;;;14.18;54.80;100006.63;7615803;32;39991;-81
2023/10/09 16:09:51;;;;;;;5.12;2.20;;;;;;;14.02;55.50;100010.63;7605679;32;38012;-81
2023/10/09 16:14:11;;;;;;;5.07;2.28;;;;;;;13.93;55.00;100004.97;7605498;32;37173;-82
2023/10/09 16:18:28;;;;;;;6.25;1.77;;;;;;;13.98;54.60;99996.69;7606459;32;39947;-81
2023/10/09 16:22:45;;;;;;;5.50;2.05;;;;;;;13.93;54.59;99995.94;7605760;32;40613;-81
2023/10/09 16:27:03;;;;;;;3.08;1.90;;;;;;;13.90;54.76;100000.88;7605780;32;37834;-81
2023/10/09 16:31:20;;;;;;;5.00;2.05;;;;;;;13.97;54.88;100010.69;7605746;32;36167;-81
2023/10/09 16:35:42;;;;;;;4.28;2.12;;;;;;;13.95;55.16;100012.88;7605785;32;39338;-81
2023/10/09 16:39:58;;;;;;;5.85;2.72;;;;;;;13.85;55.54;100005.59;7605661;32;39677;-81
2023/10/09 16:44:17;;;;;;;7.60;3.25;;;;;;;13.82;54.79;100003.44;7604652;32;38178;-81
2023/10/09 16:48:37;;;;;;;8.68;3.33;;;;;;;13.63;55.91;100019.75;7606176;32;37762;-79
2023/10/09 16:52:55;;;;;;;5.35;2.75;;;;;;;13.79;55.99;100023.19;7605417;32;39962;-82
2023/10/09 16:57:12;;;;;;;11.52;4.10;;;;;;;13.60;56.94;100034.84;7604391;32;39887;-81
2023/10/09 17:01:30;;;;;;;9.98;3.35;;;;;;;13.59;55.53;100029.63;7605094;32;38888;-83
2023/10/09 17:06:04;;;;;;;7.25;3.37;;;;;;;13.63;55.63;100008.81;7605520;32;38382;-81
2023/10/09 17:10:25;;;;;;;8.40;3.83;;;;;;;13.53;56.47;100035.16;7605526;32;39343;-81
2023/10/09 17:14:41;;;;;;;5.68;2.92;;;;;;;13.68;56.54;100041.63;7605009;32;39985;-81
2023/10/09 17:19:00;;;;;;;7.22;2.70;;;;;;;13.79;56.77;100037.69;7605190;32;38459;-81
2023/10/09 17:23:18;;;;;;;9.07;3.17;;;;;;;13.76;57.10;100024.56;7605041;32;37720;-81
2023/10/09 17:27:34;;;;;;;7.87;2.47;;;;;;;13.85;57.05;100027.53;7604956;32;39320;-81
2023/10/09 17:31:51;;;;;;;6.20;2.65;;;;;;;13.58;58.14;100025.28;7604789;32;40024;-82
2023/10/09 17:36:08;;;;;;;4.87;2.58;;;;;;;13.69;58.11;100022.19;7604325;32;38743;-79
2023/10/09 17:40:27;;;;;;;6.10;2.90;;;;;;;13.66;58.53;100035.59;7605086;32;37361;-80
2023/10/09 17:44:44;;;;;;;3.92;2.50;;;;;;;13.80;57.90;100016.63;7604810;32;39371;-80
2023/10/09 17:49:01;;;;;;;6.70;2.75;;;;;;;13.57;58.57;100018.97;7604535;32;40115;-81
2023/10/09 17:53:17;;;;;;;7.47;2.92;;;;;;;13.60;58.58;100012.12;7604402;32;38728;-81
2023/10/09 17:57:35;;;;;;;4.22;2.35;;;;;;;13.67;58.27;100007.13;7603294;32;37697;-81
2023/10/09 18:01:52;;;;;;;10.02;2.72;;;;;;;13.52;58.65;100006.16;7618303;32;39129;-80
2023/10/09 18:06:12;;;;;;;6.53;2.80;;;;;;;13.47;58.55;99999.88;7624576;32;40903;-80
2023/10/09 18:10:40;;;;;;;7.68;3.20;;;;;;;13.36;58.45;99995.59;7630318;32;37699;-81
2023/10/09 18:14:59;;;;;;;9.10;3.40;;;;;;;13.41;58.25;99996.38;7630760;32;37785;-82
2023/10/09 18:19:16;;;;;;;4.35;2.78;;;;;;;13.43;58.33;100001.56;7629883;32;40099;-82
2023/10/09 18:23:35;;;;;;;7.05;2.92;;;;;;;13.47;58.81;100008.94;7629448;32;40855;-85
2023/10/09 18:27:52;;;;;;;7.07;3.03;;;;;;;13.44;58.89;100011.41;7630273;32;38706;-83
2023/10/09 18:32:08;;;;;;;7.65;3.05;;;;;;;13.43;59.37;100007.84;7614656;32;36838;-82
2023/10/09 18:36:28;;;;;;;8.50;3.20;;;;;;;13.26;60.28;100019.19;7630130;32;39448;-83
2023/10/09 18:40:47;;;;;;;6.95;3.33;;;;;;;13.24;60.25;100023.28;7625775;32;40031;-81
2023/10/09 18:45:07;;;;;;;5.70;3.08;;;;;;;13.23;60.05;100018.91;7603991;32;37776;-79
2023/10/09 18:49:23;;;;;;;10.65;3.05;;;;;;;13.29;59.90;100017.78;7603847;32;36988;-83
2023/10/09 18:53:40;;;;;;;6.75;2.72;;;;;;;13.14;60.76;100022.25;7603688;32;40129;-82
2023/10/09 18:57:57;;;;;;;6.30;3.03;;;;;;;13.23;60.52;100018.91;7604610;32;40582;-80
2023/10/09 19:02:13;;;;;;;5.53;2.97;;;;;;;13.07;60.60;100015.44;7629364;32;38941;-83
2023/10/09 19:06:30;;;;;;;6.22;3.08;;;;;;;12.72;61.80;100020.81;7629916;32;37174;-82
2023/10/09 19:10:46;;;;;;;7.78;3.45;;;;;;;13.08;60.42;100028.84;7618590;32;40075;-84
2023/10/09 19:15:06;;;;;;;7.20;3.75;;;;;;;12.85;60.96;100024.88;7613288;32;39948;-83
2023/10/09 19:19:25;;;;;;;7.95;3.80;;;;;;;12.66;61.71;100027.44;7610829;32;38007;-84
2023/10/09 19:23:45;;;;;;;9.82;5.15;;;;;;;12.59;61.92;100032.41;7607075;32;36911;-82
2023/10/09 19:28:04;;;;;;;7.12;4.30;;;;;;;12.67;61.52;100031.78;7606949;32;40080;-82
2023/10/09 19:32:20;;;;;;;12.00;4.62;;;;;;;12.53;61.54;100036.22;7606933;32;38702;-82
2023/10/09 19:36:38;;;;;;;11.12;4.85;;;;;;;12.61;61.05;100045.75;7606913;32;38800;-81
2023/10/09 19:40:55;;;;;;;10.52;5.30;;;;;;;12.37;61.72;100054.59;7615826;32;37926;-80
2023/10/09 19:45:13;;;;;;;11.38;5.32;;;;;;;12.30;61.94;100051.34;7618032;32;39166;-82
2023/10/09 19:49:30;;;;;;;6.97;4.10;;;;;;;12.29;61.89;100055.97;7633052;32;39366;-83
2023/10/09 19:53:46;;;;;;;15.13;5.32;;;;;;;12.24;61.98;100064.19;7632682;32;37676;-81
2023/10/09 19:58:04;;;;;;;7.55;4.45;;;;;;;12.10;62.49;100068.59;7620819;32;37953;-81
2023/10/09 20:02:21;;;;;;;12.23;4.78;;;;;;;11.94;62.86;100071.31;7618098;32;39570;-82
2023/10/09 20:06:39;;;;;;;9.05;4.60;;;;;;;11.88;62.57;100072.38;7623179;32;39967;-80
2023/10/09 20:10:55;;;;;;;9.98;4.50;;;;;;;12.14;61.67;100069.66;7618727;32;38749;-84
2023/10/09 20:15:13;;;;;;;9.07;4.72;;;;;;;11.84;61.89;100065.84;7616764;32;36945;-80
2023/10/09 20:19:32;;;;;;;9.93;4.93;;;;;;;11.67;62.69;100068.84;7619032;32;39362;-80
2023/10/09 20:23:48;;;;;;;10.00;4.47;;;;;;;11.37;63.68;100064.16;7616478;32;40146;-80
2023/10/09 20:28:04;;;;;;;10.00;4.95;;;;;;;12.00;61.98;100063.94;7609944;32;37889;-82
2023/10/09 20:32:20;;;;;;;8.38;4.47;;;;;;;11.89;62.00;100067.75;7606320;32;38206;-80
2023/10/09 20:36:40;;;;;;;8.75;4.28;;;;;;;12.11;61.74;100068.31;7606322;32;40081;-81
2023/10/09 20:40:57;;;;;;;9.88;4.03;;;;;;;11.93;62.25;100072.41;7605189;32;40042;-81
2023/10/09 20:45:13;;;;;;;9.88;4.57;;;;;;;11.89;62.71;100071.28;7606227;32;38031;-81
2023/10/09 20:49:31;;;;;;;8.90;4.72;;;;;;;11.75;63.42;100068.28;7620649;32;37911;-79
2023/10/09 20:53:48;;;;;;;8.75;4.07;;;;;;;11.79;62.94;100076.75;7632205;32;39160;-81
2023/10/09 20:58:04;;;;;;;7.75;4.47;;;;;;;11.95;62.32;100083.91;7632195;32;39631;-82
2023/10/09 21:02:20;;;;;;;10.88;4.90;;;;;;;11.78;62.77;100088.75;7632039;32;37934;-81
2023/10/09 21:06:37;;;;;;;9.20;4.40;;;;;;;11.89;62.72;100079.50;7632040;32;37419;-82
2023/10/09 21:10:53;;;;;;;8.55;4.25;;;;;;;12.01;62.10;100085.53;7631990;32;39503;-82
2023/10/09 21:15:15;;;;;;;9.43;4.60;;;;;;;11.76;63.02;100101.87;7631552;32;40021;-81
2023/10/09 21:19:32;;;;;;;8.02;4.62;;;;;;;12.03;62.07;100120.78;7630162;32;38639;-81
2023/10/09 21:23:49;;;;;;;8.43;4.50;;;;;;;12.06;62.35;100108.50;7605723;32;37803;-81
2023/10/09 21:28:06;;;;;;;10.85;4.70;;;;;;;11.99;62.62;100117.78;7605846;32;39465;-80
2023/10/09 21:32:22;;;;;;;9.73;4.70;;;;;;;12.03;62.54;100113.41;7605405;32;39661;-80
2023/10/09 21:36:38;;;;;;;13.68;4.80;;;;;;;12.13;62.27;100106.31;7605469;32;37958;-80
2023/10/09 21:40:56;;;;;;;8.00;4.75;;;;;;;12.15;62.14;100104.09;7605471;32;37269;-80
2023/10/09 21:45:12;;;;;;;11.63;5.57;;;;;;;12.17;62.28;100096.44;7606437;32;39312;-81
2023/10/09 21:49:29;;;;;;;11.57;4.93;;;;;;;12.28;62.00;100105.44;7605203;32;40013;-81
2023/10/09 21:53:45;;;;;;;9.85;4.70;;;;;;;12.10;62.46;100099.47;7605302;32;37641;-80
2023/10/09 21:58:03;;;;;;;13.52;4.93;;;;;;;12.06;62.73;100103.03;7612753;32;37437;-82
2023/10/09 22:02:20;;;;;;;7.75;4.37;;;;;;;12.08;63.04;100103.56;7629867;32;41588;-81
2023/10/09 22:06:37;;;;;;;8.10;4.50;;;;;;;11.90;64.22;100105.72;7630884;32;39919;-81
2023/10/09 22:10:54;;;;;;;9.95;4.75;;;;;;;11.98;64.03;100110.66;7630710;32;37938;-81